Time;durP1;ratioP1;P1;durP2;ratioP2;P2;SDS_P1;SDS_P2;PMS_P1;PMS_P2;Temp;Humidity;BMP_temperature;BMP_pressure;BME280_temperature;BME280_humidity;BME280_pressure;Samples;Min_cycle;Max_cycle;Signal;HPM_P1;HPM_P2
2022/11/02 00:00:17;;;;;;;;;2.00;1.50;;;;;16.48;65.30;101541.53;4828665;29;46360;-77
2022/11/02 00:02:42;;;;;;;;;2.00;2.00;;;;;16.52;65.19;101562.00;4829014;29;45500;-76
2022/11/02 00:05:11;;;;;;;;;2.75;0.25;;;;;16.49;65.23;101551.38;4834869;29;45288;-77
2022/11/02 00:07:36;;;;;;;;;1.50;0.00;;;;;16.47;65.60;101558.63;4849032;29;45314;-82
2022/11/02 00:10:02;;;;;;;;;1.50;1.50;;;;;16.45;65.38;101558.69;4827448;29;45408;-82
2022/11/02 00:12:27;;;;;;;;;2.00;1.00;;;;;16.39;65.32;101544.63;4837561;29;45475;-82
2022/11/02 00:14:53;;;;;;;;;4.00;2.00;;;;;16.41;65.43;101550.84;4835126;29;45281;-77
2022/11/02 00:17:18;;;;;;;;;1.00;1.00;;;;;16.38;65.50;101545.56;4825997;29;45528;-77
2022/11/02 00:19:43;;;;;;;;;1.00;1.00;;;;;16.39;65.29;101555.38;4828318;29;45307;-83
2022/11/02 00:22:09;;;;;;;;;0.50;0.50;;;;;16.32;65.52;101548.53;4843130;29;45364;-83
2022/11/02 00:24:34;;;;;;;;;3.00;0.25;;;;;16.32;65.42;101554.78;4833158;29;45257;-82
2022/11/02 00:27:00;;;;;;;;;1.00;1.00;;;;;16.35;65.49;101569.97;4828012;29;45262;-82
2022/11/02 00:29:26;;;;;;;;;1.00;1.00;;;;;16.35;65.38;101575.34;4825494;29;46018;-77
2022/11/02 00:31:51;;;;;;;;;2.25;1.00;;;;;16.33;65.21;101571.84;4828462;29;45277;-77
2022/11/02 00:34:17;;;;;;;;;1.75;1.00;;;;;16.32;65.41;101579.03;4828237;29;45355;-82
2022/11/02 00:36:42;;;;;;;;;2.00;1.00;;;;;16.28;64.99;101578.28;4828981;29;45351;-82
2022/11/02 00:39:08;;;;;;;;;0.50;0.50;;;;;16.26;64.97;101582.88;4828672;29;45437;-82
2022/11/02 00:41:33;;;;;;;;;1.00;1.00;;;;;16.17;64.99;101568.91;4841749;29;45292;-82
2022/11/02 00:43:58;;;;;;;;;1.00;1.00;;;;;16.24;64.91;101589.28;4832270;29;45610;-83
2022/11/02 00:46:24;;;;;;;;;1.00;1.00;;;;;16.22;65.08;101593.84;4828152;29;45306;-82
2022/11/02 00:48:49;;;;;;;;;1.75;0.25;;;;;16.14;64.85;101577.13;4827971;29;46529;-82
2022/11/02 00:51:14;;;;;;;;;2.00;0.25;;;;;16.15;64.72;101595.91;4833704;29;45289;-76
2022/11/02 00:53:40;;;;;;;;;3.00;1.00;;;;;16.17;64.70;101596.75;4835373;29;45305;-77
2022/11/02 00:56:05;;;;;;;;;1.75;0.75;;;;;16.17;64.57;101601.25;4849892;29;45466;-76
2022/11/02 00:58:31;;;;;;;;;1.00;0.00;;;;;16.09;64.59;101602.44;4827823;29;45927;-76
2022/11/02 01:00:56;;;;;;;;;2.25;0.75;;;;;16.13;64.64;101607.72;4842602;29;45443;-76
2022/11/02 01:03:21;;;;;;;;;2.00;1.00;;;;;16.10;64.60;101604.22;4828360;29;45404;-77
2022/11/02 01:05:47;;;;;;;;;1.00;1.00;;;;;16.06;64.25;101616.03;4839180;29;45323;-76
2022/11/02 01:08:12;;;;;;;;;1.75;0.00;;;;;16.05;64.31;101618.78;4828356;29;45546;-77
2022/11/02 01:10:37;;;;;;;;;1.00;1.00;;;;;16.01;64.44;101609.09;4837780;29;49061;-77
2022/11/02 01:13:03;;;;;;;;;1.00;1.00;;;;;16.03;64.80;101613.47;4841218;29;45410;-77
2022/11/02 01:15:29;;;;;;;;;1.00;1.00;;;;;16.01;64.78;101625.25;4835956;29;45391;-82
2022/11/02 01:17:54;;;;;;;;;4.50;0.25;;;;;15.93;64.25;101614.78;4838471;29;48199;-82
2022/11/02 01:20:20;;;;;;;;;1.75;1.00;;;;;15.98;64.45;101615.47;4820028;29;45282;-82
2022/11/02 01:22:45;;;;;;;;;2.00;1.00;;;;;15.95;64.25;101615.59;4832494;29;45250;-82
2022/11/02 01:25:10;;;;;;;;;0.25;0.25;;;;;15.94;64.59;101616.56;4850238;29;46064;-82
2022/11/02 01:27:36;;;;;;;;;2.00;1.00;;;;;15.93;64.37;101620.19;4828630;29;45966;-82
2022/11/02 01:30:03;;;;;;;;;0.25;0.25;;;;;15.96;64.39;101629.97;4845723;29;45335;-82
2022/11/02 01:32:29;;;;;;;;;1.75;0.00;;;;;15.93;64.66;101628.25;4831066;29;45432;-82
2022/11/02 01:34:54;;;;;;;;;1.75;1.00;;;;;15.95;64.33;101636.28;4831287;29;45455;-82
2022/11/02 01:37:20;;;;;;;;;0.50;0.50;;;;;15.87;64.49;101618.63;4836610;29;45372;-82
2022/11/02 01:39:46;;;;;;;;;2.25;0.75;;;;;15.88;64.31;101625.75;4830803;29;45349;-82
2022/11/02 01:42:20;;;;;;;;;1.00;1.00;;;;;15.92;64.57;101630.09;4841470;29;45705;-82
2022/11/02 01:44:45;;;;;;;;;0.00;0.00;;;;;15.92;64.53;101638.16;4845518;29;45393;-83
2022/11/02 01:47:36;;;;;;;;;1.25;1.00;;;;;15.92;64.51;101646.25;4854331;29;47938;-82
2022/11/02 01:50:08;;;;;;;;;0.75;0.75;;;;;15.92;64.57;101640.84;4841676;29;46022;-82
2022/11/02 01:52:36;;;;;;;;;0.25;0.25;;;;;15.90;64.56;101645.44;4845330;29;45301;-82
2022/11/02 01:55:18;;;;;;;;;4.75;1.00;;;;;15.88;64.73;101654.50;4842925;29;45312;-77
2022/11/02 01:57:48;;;;;;;;;2.00;0.50;;;;;15.84;64.56;101651.06;4834926;29;47102;-77
2022/11/02 02:00:15;;;;;;;;;0.25;0.00;;;;;15.83;64.63;101651.97;4832905;29;45408;-77
2022/11/02 02:02:51;;;;;;;;;0.75;0.75;;;;;15.80;64.49;101659.31;4830499;29;45263;-77
2022/11/02 02:05:17;;;;;;;;;1.50;1.00;;;;;15.73;64.61;101664.00;4830732;29;45302;-77
2022/11/02 02:07:42;;;;;;;;;2.75;1.00;;;;;15.63;64.71;101650.03;4844710;29;46260;-77
2022/11/02 02:10:08;;;;;;;;;0.00;0.00;;;;;15.72;64.75;101664.97;4830572;29;45252;-77
2022/11/02 02:12:37;;;;;;;;;2.25;0.75;;;;;15.74;64.81;101668.47;4839294;29;45491;-77
2022/11/02 02:15:02;;;;;;;;;1.00;1.00;;;;;15.73;64.78;101670.28;4845151;29;45535;-77
2022/11/02 02:17:40;;;;;;;;;2.00;1.00;;;;;15.73;64.55;101680.16;4832489;29;46889;-77
2022/11/02 02:20:27;;;;;;;;;3.00;1.00;;;;;15.70;64.69;101670.41;4854202;29;45555;-77
2022/11/02 02:23:22;;;;;;;;;3.75;1.00;;;;;15.65;64.61;101666.13;4821036;29;45533;-82
2022/11/02 02:26:00;;;;;;;;;0.00;0.00;;;;;15.67;64.67;101673.22;4833261;29;45356;-82
2022/11/02 02:28:53;;;;;;;;;3.25;1.00;;;;;15.61;64.72;101676.13;4830521;29;46551;-82
2022/11/02 02:31:33;;;;;;;;;2.00;0.75;;;;;15.61;64.61;101675.28;4820105;29;45348;-77
2022/11/02 02:34:18;;;;;;;;;0.00;0.00;;;;;15.63;64.78;101684.16;4833141;29;45271;-82
2022/11/02 02:37:09;;;;;;;;;1.25;1.25;;;;;15.58;64.63;101681.63;4829761;29;45263;-82
2022/11/02 02:39:43;;;;;;;;;2.25;1.75;;;;;15.62;64.55;101690.47;4829511;29;46063;-82
2022/11/02 02:42:22;;;;;;;;;0.50;0.50;;;;;15.56;64.94;101687.06;4830287;29;45405;-82
2022/11/02 02:44:59;;;;;;;;;1.50;1.00;;;;;15.61;64.88;101696.81;4836333;29;45432;-82
2022/11/02 02:47:29;;;;;;;;;1.00;1.00;;;;;15.54;64.54;101686.25;4829517;29;45401;-83
2022/11/02 02:50:02;;;;;;;;;0.00;0.00;;;;;15.51;64.81;101685.50;4829333;29;46305;-82
2022/11/02 02:52:32;;;;;;;;;2.50;1.00;;;;;15.57;64.51;101685.28;4853964;29;46156;-82
2022/11/02 02:55:00;;;;;;;;;0.50;0.00;;;;;15.50;64.61;101683.75;4831967;29;45430;-77
2022/11/02 02:57:29;;;;;;;;;4.00;1.00;;;;;15.55;64.70;101698.78;4831569;29;45436;-77
2022/11/02 02:59:55;;;;;;;;;3.00;2.00;;;;;15.53;64.37;101684.50;4829391;29;45433;-82
2022/11/02 03:02:35;;;;;;;;;4.75;1.00;;;;;15.44;64.38;101684.88;4829853;29;48122;-82
2022/11/02 03:05:01;;;;;;;;;4.25;1.00;;;;;15.37;64.44;101686.03;4828645;29;45378;-82
2022/11/02 03:07:30;;;;;;;;;4.50;1.00;;;;;15.44;64.46;101702.81;4830982;29;45429;-82
2022/11/02 03:10:19;;;;;;;;;1.75;0.50;;;;;15.43;64.79;101696.53;4834668;29;45407;-82
2022/11/02 03:12:56;;;;;;;;;3.00;0.50;;;;;15.45;64.51;101713.53;4832452;29;45515;-82
2022/11/02 03:15:21;;;;;;;;;2.00;1.00;;;;;15.46;64.52;101709.03;4854512;29;45388;-82
2022/11/02 03:17:59;;;;;;;;;3.00;0.75;;;;;15.47;64.50;101711.66;4842399;29;45608;-76
2022/11/02 03:20:31;;;;;;;;;2.00;0.00;;;;;15.48;64.60;101709.84;4841105;29;47284;-82
2022/11/02 03:23:22;;;;;;;;;4.00;1.00;;;;;15.45;64.70;101712.63;4841559;29;45488;-82
2022/11/02 03:26:15;;;;;;;;;1.50;0.50;;;;;15.40;64.63;101702.03;4830541;29;45250;-77
2022/11/02 03:29:10;;;;;;;;;1.00;1.00;;;;;15.42;64.46;101707.38;4829098;29;45506;-76
2022/11/02 03:31:47;;;;;;;;;1.00;1.00;;;;;15.45;64.48;101715.31;4821908;29;45332;-77
2022/11/02 03:34:26;;;;;;;;;2.00;0.00;;;;;15.44;64.37;101717.16;4838821;29;45281;-77
2022/11/02 03:37:01;;;;;;;;;0.75;0.00;;;;;15.42;64.50;101719.03;4847653;29;45285;-77
2022/11/02 03:39:49;;;;;;;;;2.75;1.00;;;;;15.37;64.42;101715.63;4843473;29;45431;-77
2022/11/02 03:42:23;;;;;;;;;3.25;0.00;;;;;15.43;64.47;101730.66;4839429;29;48254;-77
2022/11/02 03:44:55;;;;;;;;;4.00;3.00;;;;;15.42;64.58;101737.84;4828266;29;45491;-77
2022/11/02 03:47:21;;;;;;;;;3.00;1.75;;;;;15.36;64.37;101727.31;4844006;29;45407;-77
2022/11/02 03:49:50;;;;;;;;;2.00;1.00;;;;;15.34;64.62;101729.19;4828871;29;45258;-82
2022/11/02 03:52:22;;;;;;;;;1.75;1.25;;;;;15.42;64.71;101743.25;4852066;29;47576;-82
2022/11/02 03:55:04;;;;;;;;;2.25;1.00;;;;;15.38;64.63;101749.66;4831890;29;45466;-82
2022/11/02 03:57:42;;;;;;;;;1.50;1.00;;;;;15.39;64.35;101759.50;4830176;29;45248;-84
2022/11/02 04:00:17;;;;;;;;;2.00;1.00;;;;;15.33;64.39;101752.50;4820040;29;45341;-82
2022/11/02 04:02:47;;;;;;;;;1.50;0.25;;;;;15.34;64.46;101759.66;4820798;29;45503;-82
2022/11/02 04:05:13;;;;;;;;;2.00;1.00;;;;;15.32;64.77;101763.34;4846290;29;45555;-82
2022/11/02 04:10:26;;;;;;;;;3.50;1.00;;;;;15.19;64.48;101762.91;4846831;29;45315;-77
2022/11/02 04:15:35;;;;;;;;;3.50;1.00;;;;;15.28;64.52;101778.69;4847309;29;45387;-77
2022/11/02 04:20:49;;;;;;;;;3.25;1.25;;;;;15.28;64.78;101793.97;4842792;29;45272;-77
2022/11/02 04:25:59;;;;;;;;;2.50;2.00;;;;;15.28;64.71;101797.53;4846921;29;45333;-76
2022/11/02 04:28:24;;;;;;;;;6.75;1.25;;;;;15.23;64.61;101791.41;4836482;29;45416;-77
2022/11/02 04:30:49;;;;;;;;;3.00;0.00;;;;;15.23;64.69;101801.31;4858199;29;45449;-77
2022/11/02 04:33:33;;;;;;;;;1.25;0.00;;;;;15.18;64.48;101799.69;4841210;29;45937;-77
2022/11/02 04:36:04;;;;;;;;;1.00;1.00;;;;;15.14;64.44;101795.31;4861774;29;45508;-77
2022/11/02 04:38:39;;;;;;;;;2.25;2.00;;;;;15.10;64.38;101790.09;4835919;29;45375;-77
2022/11/02 04:43:58;;;;;;;;;2.00;1.00;;;;;15.11;64.63;101810.69;4843178;29;45431;-77
2022/11/02 04:46:26;;;;;;;;;1.00;0.50;;;;;15.07;64.60;101812.59;4855124;29;45452;-77
2022/11/02 04:48:52;;;;;;;;;5.25;2.00;;;;;15.11;64.59;101825.00;4834288;29;45356;-77
2022/11/02 04:51:19;;;;;;;;;4.25;1.00;;;;;15.11;64.65;101827.69;4855132;29;45458;-77
2022/11/02 04:53:45;;;;;;;;;1.25;0.75;;;;;15.11;64.57;101825.00;4846935;29;45606;-76
2022/11/02 04:56:10;;;;;;;;;1.00;1.00;;;;;15.11;64.66;101825.00;4843335;29;45610;-76
2022/11/02 04:58:36;;;;;;;;;3.25;1.00;;;;;15.11;64.38;101824.13;4844288;29;45447;-76
2022/11/02 05:01:10;;;;;;;;;3.00;1.75;;;;;15.09;64.48;101815.25;4838377;29;45481;-77
2022/11/02 05:03:36;;;;;;;;;1.50;1.00;;;;;15.06;64.21;101828.78;4820969;29;45709;-77
2022/11/02 05:06:01;;;;;;;;;1.25;1.00;;;;;14.97;64.40;101825.47;4831762;29;45396;-77
2022/11/02 05:08:26;;;;;;;;;2.00;2.00;;;;;15.01;64.51;101837.88;4836738;29;45268;-76
2022/11/02 05:10:56;;;;;;;;;1.75;1.00;;;;;15.02;64.45;101833.41;4855794;29;45508;-77
2022/11/02 05:13:25;;;;;;;;;3.25;3.00;;;;;15.03;64.37;101845.91;4833476;29;45359;-77
2022/11/02 05:15:54;;;;;;;;;3.75;1.50;;;;;15.00;64.53;101846.00;4827952;29;45224;-76
2022/11/02 05:18:19;;;;;;;;;0.00;0.00;;;;;15.00;64.41;101852.28;4832864;29;45388;-82
2022/11/02 05:20:50;;;;;;;;;4.00;1.25;;;;;14.93;64.19;101833.69;4843620;29;45389;-83
2022/11/02 05:23:15;;;;;;;;;1.75;1.75;;;;;14.95;64.45;101847.94;4831780;29;45382;-83
2022/11/02 05:25:41;;;;;;;;;3.50;1.00;;;;;14.95;64.15;101842.56;4833508;29;45172;-82
2022/11/02 05:28:06;;;;;;;;;2.25;1.00;;;;;14.98;64.33;101850.53;4834599;29;45466;-76
2022/11/02 05:30:31;;;;;;;;;1.00;1.00;;;;;14.98;64.09;101861.31;4843702;29;45533;-76
2022/11/02 05:32:57;;;;;;;;;4.00;1.50;;;;;14.92;64.50;101854.34;4830769;29;45978;-76
2022/11/02 05:35:22;;;;;;;;;3.00;2.00;;;;;14.88;64.33;101858.03;4830465;29;45270;-76
2022/11/02 05:37:48;;;;;;;;;2.00;1.25;;;;;14.84;64.42;101855.50;4839462;29;45439;-82
2022/11/02 05:40:14;;;;;;;;;5.50;1.50;;;;;14.91;64.66;101876.75;4833812;29;45529;-83
2022/11/02 05:42:39;;;;;;;;;5.50;3.00;;;;;14.86;64.66;101877.84;4830942;29;46421;-83
2022/11/02 05:45:05;;;;;;;;;4.00;1.00;;;;;14.76;64.70;101871.88;4832782;29;45443;-83
2022/11/02 05:47:30;;;;;;;;;4.25;2.00;;;;;14.81;64.73;101872.59;4855046;29;45471;-82
2022/11/02 05:49:55;;;;;;;;;4.00;1.00;;;;;14.77;64.61;101882.59;4833715;29;45451;-82
2022/11/02 05:52:21;;;;;;;;;3.75;2.75;;;;;14.77;64.68;101879.91;4854608;29;45320;-76
2022/11/02 05:54:47;;;;;;;;;1.50;1.25;;;;;14.78;64.78;101883.44;4832637;29;45331;-83
2022/11/02 05:57:12;;;;;;;;;5.00;3.00;;;;;14.73;64.69;101874.66;4846504;29;45383;-82
2022/11/02 05:59:37;;;;;;;;;4.00;3.75;;;;;14.78;65.01;101878.06;4830481;29;45445;-82
2022/11/02 06:02:03;;;;;;;;;6.75;1.50;;;;;14.72;64.81;101867.53;4829470;29;46832;-82
2022/11/02 06:04:28;;;;;;;;;3.75;2.50;;;;;14.74;64.90;101879.13;4823174;29;45283;-83
2022/11/02 06:06:53;;;;;;;;;2.25;2.00;;;;;14.71;65.15;101865.78;4835935;29;45470;-82
2022/11/02 06:09:19;;;;;;;;;3.00;2.00;;;;;14.67;64.49;101864.09;4829878;29;45457;-82
2022/11/02 06:11:44;;;;;;;;;5.75;4.00;;;;;14.62;65.27;101866.94;4846703;29;45495;-77
2022/11/02 06:14:09;;;;;;;;;2.25;1.50;;;;;14.68;64.89;101877.47;4831236;29;45600;-77
2022/11/02 06:16:35;;;;;;;;;1.50;1.50;;;;;14.65;65.05;101882.97;4837430;29;45315;-76
2022/11/02 06:19:00;;;;;;;;;2.75;2.50;;;;;14.53;65.12;101864.50;4836208;29;45409;-77
2022/11/02 06:21:25;;;;;;;;;4.75;3.25;;;;;14.54;65.26;101872.50;4842368;29;45369;-77
2022/11/02 06:23:51;;;;;;;;;6.00;3.00;;;;;14.55;65.02;101885.03;4837294;29;45428;-76
2022/11/02 06:26:16;;;;;;;;;3.00;3.00;;;;;14.55;65.46;101894.88;4829804;29;45246;-76
2022/11/02 06:28:42;;;;;;;;;3.00;2.00;;;;;14.59;65.25;101896.59;4842531;29;45371;-77
2022/11/02 06:31:07;;;;;;;;;3.25;2.50;;;;;14.59;65.24;101904.66;4835777;29;47781;-76
2022/11/02 06:33:32;;;;;;;;;3.50;2.75;;;;;14.52;64.96;101895.00;4835909;29;45214;-76
2022/11/02 06:35:58;;;;;;;;;3.00;2.25;;;;;14.58;65.25;101910.91;4843198;29;45475;-77
2022/11/02 06:38:23;;;;;;;;;8.25;6.50;;;;;14.58;65.20;101902.84;4830454;29;45551;-82
2022/11/02 06:41:05;;;;;;;;;5.50;3.75;;;;;14.49;65.40;101892.41;4841675;29;46208;-82
2022/11/02 06:43:30;;;;;;;;;5.00;2.25;;;;;14.58;65.40;101910.91;4832523;29;45269;-82
2022/11/02 06:45:57;;;;;;;;;7.00;3.75;;;;;14.57;65.38;101914.56;4843216;29;45287;-76
2022/11/02 06:48:23;;;;;;;;;7.00;3.00;;;;;14.54;65.13;101906.56;4842445;29;45395;-77
2022/11/02 06:50:49;;;;;;;;;3.75;1.75;;;;;14.52;65.31;101906.63;4845245;29;45644;-77
2022/11/02 06:53:14;;;;;;;;;4.75;2.25;;;;;14.49;65.25;101912.09;4851925;29;45607;-76
2022/11/02 06:55:39;;;;;;;;;4.25;3.00;;;;;14.46;65.36;101923.78;4837055;29;45589;-76
2022/11/02 06:58:05;;;;;;;;;7.75;4.25;;;;;14.50;65.72;101937.13;4830576;29;45633;-76
2022/11/02 07:00:30;;;;;;;;;4.00;2.50;;;;;14.46;65.83;101937.22;4843851;29;46016;-76
2022/11/02 07:03:04;;;;;;;;;6.50;4.00;;;;;14.46;65.39;101936.34;4834659;29;45428;-76
2022/11/02 07:05:30;;;;;;;;;7.50;4.50;;;;;14.44;65.47;101941.75;4840349;29;45460;-81
2022/11/02 07:07:56;;;;;;;;;3.75;3.00;;;;;14.43;65.56;101944.50;4836698;29;45446;-81
2022/11/02 07:10:22;;;;;;;;;5.00;3.00;;;;;14.43;65.85;101944.50;4842995;29;47207;-81
2022/11/02 07:12:51;;;;;;;;;4.00;4.00;;;;;14.33;65.90;101930.44;4833124;29;45349;-81
2022/11/02 07:15:16;;;;;;;;;5.75;2.50;;;;;14.34;65.71;101937.59;4825222;29;45413;-76
2022/11/02 07:17:41;;;;;;;;;5.00;3.50;;;;;14.33;65.85;101938.50;4829545;29;45348;-76
2022/11/02 07:20:09;;;;;;;;;8.25;4.00;;;;;14.34;65.58;101945.66;4824364;29;45177;-76
2022/11/02 07:22:35;;;;;;;;;4.75;4.00;;;;;14.32;66.13;101946.63;4823542;29;45578;-76
2022/11/02 07:25:00;;;;;;;;;3.00;2.50;;;;;14.20;65.94;101929.03;4833230;29;45498;-76
2022/11/02 07:27:25;;;;;;;;;3.50;2.00;;;;;14.20;66.34;101942.47;4828193;29;45388;-75
2022/11/02 07:29:51;;;;;;;;;5.50;4.25;;;;;14.17;66.47;101939.91;4835876;29;47337;-76
2022/11/02 07:32:16;;;;;;;;;5.75;4.00;;;;;14.21;66.01;101954.97;4831254;29;45423;-75
2022/11/02 07:34:41;;;;;;;;;4.50;3.25;;;;;14.24;66.22;101958.44;4842214;29;46555;-75
2022/11/02 07:37:07;;;;;;;;;2.50;1.75;;;;;14.22;66.32;101965.69;4829130;29;45622;-76
2022/11/02 07:39:32;;;;;;;;;3.50;1.00;;;;;14.08;66.35;101941.91;4828032;29;46057;-76
2022/11/02 07:52:30;;;;;;;;;3.00;3.00;;;;;14.16;66.62;101952.41;5095954;27;45851;-82
2022/11/02 07:54:56;;;;;;;;;4.00;2.25;;;;;14.18;66.53;101965.81;5081282;27;45255;-74
2022/11/02 07:57:21;;;;;;;;;6.00;3.00;;;;;14.20;66.66;101963.94;5088713;27;45318;-74
2022/11/02 07:59:46;;;;;;;;;3.50;3.50;;;;;14.17;66.86;101969.44;5092828;27;45530;-74
2022/11/02 08:02:12;;;;;;;;;3.75;3.00;;;;;14.04;66.87;101950.09;5083277;27;46629;-76
2022/11/02 08:04:38;;;;;;;;;5.00;2.50;;;;;14.12;66.79;101971.38;5093344;27;45317;-74
2022/11/02 08:07:03;;;;;;;;;3.75;3.00;;;;;14.15;66.64;101971.25;5091443;27;45277;-75
2022/11/02 08:09:28;;;;;;;;;8.50;3.00;;;;;14.22;66.62;101978.25;5091830;27;45195;-75
2022/11/02 08:11:56;;;;;;;;;2.00;2.00;;;;;14.24;67.05;101979.06;5094135;27;51648;-74
2022/11/02 08:14:21;;;;;;;;;4.50;3.50;;;;;14.19;66.87;101964.88;5089182;27;45264;-75
2022/11/02 08:16:50;;;;;;;;;4.75;3.25;;;;;14.28;67.08;101970.00;5091924;27;45679;-75
2022/11/02 08:19:15;;;;;;;;;3.50;3.00;;;;;14.22;67.10;101963.00;5086925;27;45469;-74
2022/11/02 08:21:41;;;;;;;;;5.75;4.50;;;;;14.29;67.33;101971.75;5077442;27;46026;-74
2022/11/02 08:24:06;;;;;;;;;6.50;4.00;;;;;14.24;67.26;101973.69;5093484;27;45280;-74
2022/11/02 08:26:32;;;;;;;;;5.25;4.00;;;;;14.15;67.32;101961.41;5094455;27;45337;-74
2022/11/02 08:28:58;;;;;;;;;7.25;3.00;;;;;14.23;67.35;101971.91;5080759;27;45416;-74
2022/11/02 08:31:23;;;;;;;;;5.00;5.00;;;;;14.21;67.48;101976.47;5078686;27;45346;-76
2022/11/02 08:33:48;;;;;;;;;3.75;3.75;;;;;14.18;67.63;101971.16;5078056;27;45370;-74
2022/11/02 08:36:14;;;;;;;;;5.50;2.75;;;;;14.28;67.82;101986.09;5088445;27;45464;-74
2022/11/02 08:38:39;;;;;;;;;5.50;3.25;;;;;14.27;67.64;101987.03;5080584;27;45373;-74
2022/11/02 08:41:05;;;;;;;;;6.75;4.00;;;;;14.27;67.35;101987.03;5077613;27;46226;-74
2022/11/02 08:43:30;;;;;;;;;5.50;4.00;;;;;14.27;67.94;101982.53;5093374;27;45388;-74
2022/11/02 08:45:58;;;;;;;;;2.50;1.00;;;;;14.28;67.75;101983.41;5080904;27;45270;-79
2022/11/02 08:48:23;;;;;;;;;6.75;4.25;;;;;14.29;68.08;101979.81;5086665;27;45398;-80
2022/11/02 08:50:49;;;;;;;;;4.50;3.00;;;;;14.32;67.46;101976.19;5086821;27;45919;-74
2022/11/02 08:53:14;;;;;;;;;5.00;3.75;;;;;14.32;67.74;101976.19;5071662;27;45256;-74
2022/11/02 08:55:40;;;;;;;;;6.75;3.00;;;;;14.26;67.61;101971.84;5062507;28;45446;-74
2022/11/02 08:58:05;;;;;;;;;6.25;5.00;;;;;14.33;67.72;101981.47;5080483;28;45377;-74
2022/11/02 09:00:32;;;;;;;;;7.00;4.00;;;;;14.35;67.90;101990.41;5064746;27;45299;-74
2022/11/02 09:03:08;;;;;;;;;5.25;4.75;;;;;14.37;68.17;101987.66;5067440;28;45724;-78
2022/11/02 09:05:36;;;;;;;;;5.50;3.00;;;;;14.35;67.93;101985.03;5077689;27;45290;-78
2022/11/02 09:08:04;;;;;;;;;3.50;3.50;;;;;14.39;67.80;101985.81;5067340;27;45510;-83
2022/11/02 09:10:32;;;;;;;;;6.75;3.25;;;;;14.42;67.88;101986.59;5068828;28;45508;-78
2022/11/02 09:12:59;;;;;;;;;3.50;3.50;;;;;14.46;67.81;101977.50;5074555;28;45673;-75
2022/11/02 09:15:26;;;;;;;;;5.25;3.75;;;;;14.39;67.85;101959.81;5071547;27;45453;-75
2022/11/02 09:17:51;;;;;;;;;6.50;3.75;;;;;14.52;67.86;101983.66;5063907;28;45918;-74
2022/11/02 09:20:18;;;;;;;;;6.00;3.75;;;;;14.52;67.66;101979.16;5075995;27;45921;-75
2022/11/02 09:22:44;;;;;;;;;6.25;4.00;;;;;14.48;67.70;101961.34;5078109;28;45520;-74
2022/11/02 09:25:10;;;;;;;;;7.00;2.25;;;;;14.50;67.85;101958.63;5068086;27;45365;-76
2022/11/02 09:27:36;;;;;;;;;7.25;5.50;;;;;14.58;67.50;101967.34;5072982;28;45391;-75
2022/11/02 09:30:03;;;;;;;;;7.75;4.00;;;;;14.61;68.02;101969.97;5061829;28;45321;-79
2022/11/02 09:32:32;;;;;;;;;5.75;5.75;;;;;14.59;67.69;101964.66;5072475;28;45280;-80
2022/11/02 09:34:58;;;;;;;;;5.25;3.50;;;;;14.64;67.89;101967.19;5071256;27;46423;-78
2022/11/02 09:37:24;;;;;;;;;5.50;3.50;;;;;14.68;67.84;101974.22;5068106;27;45413;-80
2022/11/02 09:39:49;;;;;;;;;4.00;3.25;;;;;14.68;67.79;101957.22;5078584;28;47200;-80
2022/11/02 09:42:47;;;;;;;;;5.00;3.75;;;;;14.73;67.36;101960.66;5078442;27;45337;-80
2022/11/02 09:45:16;;;;;;;;;7.50;7.00;;;;;14.80;67.61;101956.84;5048123;28;45523;-81
2022/11/02 09:47:55;;;;;;;;;5.25;4.25;;;;;14.83;67.66;101951.38;5063674;28;45466;-75
2022/11/02 09:50:24;;;;;;;;;6.25;6.25;;;;;14.82;67.40;101942.44;5080926;27;45477;-75
2022/11/02 09:52:56;;;;;;;;;10.00;6.50;;;;;14.92;67.19;101963.69;5067504;28;45260;-76
2022/11/02 09:55:40;;;;;;;;;6.50;5.00;;;;;14.90;67.16;101946.69;5075459;28;45403;-76
2022/11/02 09:58:14;;;;;;;;;12.00;5.00;;;;;14.94;67.41;101949.25;5078493;28;45445;-76
2022/11/02 10:00:42;;;;;;;;;7.50;6.25;;;;;15.01;67.55;101963.38;5062005;28;45426;-80
2022/11/02 10:03:27;;;;;;;;;12.50;10.50;;;;;14.96;67.17;101942.00;5076334;28;45629;-79
2022/11/02 10:05:59;;;;;;;;;6.00;6.00;;;;;15.06;67.35;101958.72;5059928;27;45227;-79
2022/11/02 10:08:37;;;;;;;;;3.50;3.25;;;;;15.08;67.03;101954.19;5066544;28;45439;-79
2022/11/02 10:11:02;;;;;;;;;4.25;3.75;;;;;15.14;66.92;101956.69;5069930;28;46628;-79
2022/11/02 10:13:33;;;;;;;;;7.00;4.00;;;;;15.14;66.81;101954.00;5071810;28;45438;-80
2022/11/02 10:16:17;;;;;;;;;9.00;5.00;;;;;15.21;66.75;101959.19;5077074;28;45390;-80
2022/11/02 10:18:48;;;;;;;;;5.00;3.50;;;;;15.19;66.81;101957.41;5071179;28;45543;-80
2022/11/02 10:21:19;;;;;;;;;2.75;2.75;;;;;15.25;66.41;101958.13;5077739;28;47368;-80
2022/11/02 10:23:55;;;;;;;;;4.00;2.50;;;;;15.18;66.77;101941.31;5076986;28;45423;-80
2022/11/02 10:26:32;;;;;;;;;5.00;3.00;;;;;15.26;66.55;101949.16;5074164;27;45259;-76
2022/11/02 10:29:22;;;;;;;;;4.50;2.50;;;;;15.34;66.66;101960.53;5072849;27;45509;-76
2022/11/02 10:31:48;;;;;;;;;3.25;3.25;;;;;15.37;66.28;101960.44;5066367;28;46410;-75
2022/11/02 10:34:25;;;;;;;;;4.50;2.00;;;;;15.41;66.32;101955.84;5077538;27;45334;-76
2022/11/02 10:37:06;;;;;;;;;2.50;2.50;;;;;15.40;66.40;101959.44;5074243;27;45413;-78
2022/11/02 10:39:59;;;;;;;;;6.00;3.25;;;;;15.44;65.82;101958.44;5068170;27;45551;-81
2022/11/02 10:42:41;;;;;;;;;5.50;2.75;;;;;15.46;65.79;101961.94;5070438;28;45428;-82
2022/11/02 10:45:31;;;;;;;;;5.75;2.50;;;;;15.48;65.88;101960.94;5067878;28;45474;-81
2022/11/02 10:48:24;;;;;;;;;4.00;2.50;;;;;15.48;65.72;101950.19;5072495;27;45424;-76
2022/11/02 10:50:59;;;;;;;;;3.50;3.50;;;;;15.51;65.81;101955.47;5076986;28;45413;-76
2022/11/02 10:53:24;;;;;;;;;3.50;3.00;;;;;15.45;65.49;101942.25;5067775;28;45653;-76
2022/11/02 10:56:02;;;;;;;;;2.00;2.00;;;;;15.56;65.67;101949.94;5071062;27;45435;-76
2022/11/02 10:58:31;;;;;;;;;4.00;2.00;;;;;15.59;65.78;101943.59;5071353;27;45345;-76
2022/11/02 11:01:11;;;;;;;;;3.00;3.00;;;;;15.60;65.45;101946.19;5068157;27;45524;-76
2022/11/02 11:03:52;;;;;;;;;4.50;2.25;;;;;15.62;65.49;101943.44;5063487;28;46732;-75
2022/11/02 11:06:19;;;;;;;;;2.75;2.75;;;;;15.57;65.15;101930.19;5074620;28;45961;-75
2022/11/02 11:08:48;;;;;;;;;5.50;3.50;;;;;15.66;65.15;101935.22;5065290;27;45409;-76
2022/11/02 11:11:26;;;;;;;;;5.25;4.00;;;;;15.67;65.08;101938.78;5075495;27;45278;-75
2022/11/02 11:14:01;;;;;;;;;5.00;3.00;;;;;15.69;65.02;101934.25;5085603;27;47054;-75
2022/11/02 11:16:51;;;;;;;;;2.25;2.00;;;;;15.71;64.96;101930.56;5073850;28;45449;-76
2022/11/02 11:19:21;;;;;;;;;8.00;3.75;;;;;15.79;65.13;101933.03;5068065;27;45428;-75
2022/11/02 11:21:50;;;;;;;;;5.25;4.00;;;;;15.82;65.02;101926.63;5059621;27;45343;-76
2022/11/02 11:24:20;;;;;;;;;4.25;2.00;;;;;15.85;65.20;101932.78;5067345;28;45325;-81
2022/11/02 11:26:58;;;;;;;;;4.25;3.00;;;;;15.81;65.05;101914.13;5077867;28;45452;-80
2022/11/02 11:29:23;;;;;;;;;4.75;4.75;;;;;15.90;65.07;101924.56;5070581;27;45420;-82
2022/11/02 11:31:48;;;;;;;;;5.25;5.25;;;;;15.87;64.81;101914.78;5073681;28;45508;-75
2022/11/02 11:34:26;;;;;;;;;3.75;3.75;;;;;15.96;64.84;101920.78;5069347;27;45578;-75
2022/11/02 11:36:52;;;;;;;;;8.75;4.00;;;;;15.98;64.46;101917.09;5068467;28;45756;-81
2022/11/02 11:39:27;;;;;;;;;5.00;4.00;;;;;15.98;64.48;101902.75;5072177;28;45495;-81
2022/11/02 11:41:53;;;;;;;;;7.75;4.75;;;;;16.02;64.50;101904.38;5077753;27;45298;-81
2022/11/02 11:44:20;;;;;;;;;5.00;3.00;;;;;16.10;64.35;101918.44;5076379;27;46046;-81
2022/11/02 11:46:48;;;;;;;;;4.50;3.00;;;;;16.09;64.31;101914.00;5073154;27;45776;-81
2022/11/02 11:49:41;;;;;;;;;7.25;4.00;;;;;16.03;64.15;101893.56;5057905;28;45398;-80
2022/11/02 11:52:19;;;;;;;;;3.00;3.00;;;;;16.05;64.25;101891.66;5073711;28;45326;-82
2022/11/02 11:54:52;;;;;;;;;3.75;3.00;;;;;16.05;63.82;101883.59;5063801;28;48618;-82
2022/11/02 11:57:26;;;;;;;;;5.50;4.00;;;;;16.17;63.78;101893.06;5065133;28;45820;-81
2022/11/02 11:59:54;;;;;;;;;6.00;3.50;;;;;16.18;63.60;101889.41;5068845;28;45387;-81